createdAt,value
2022-11-08T00:02:14.924Z,94.16
2022-11-08T00:05:35.934Z,94.64
2022-11-08T00:08:56.738Z,94.02
2022-11-08T00:12:18.327Z,94.52
2022-11-08T00:15:20.762Z,95.12
2022-11-08T00:18:23.125Z,95.42
2022-11-08T00:21:25.709Z,96.12
2022-11-08T00:24:28.069Z,96.02
2022-11-08T00:27:30.527Z,95.66
2022-11-08T00:30:32.945Z,95.78
2022-11-08T00:33:35.518Z,95.76
2022-11-08T00:36:37.843Z,96.24
2022-11-08T00:39:40.363Z,95.90
2022-11-08T00:42:42.743Z,96.22
2022-11-08T00:45:45.262Z,96.32
2022-11-08T00:48:47.734Z,96.04
2022-11-08T00:51:50.270Z,96.26
2022-11-08T00:54:52.620Z,96.35
2022-11-08T00:57:59.498Z,95.78
2022-11-08T01:01:09.499Z,95.22
2022-11-08T01:04:15.139Z,95.36
2022-11-08T01:07:17.548Z,95.60
2022-11-08T01:10:19.873Z,95.45
2022-11-08T01:13:22.846Z,95.69
2022-11-08T01:16:27.876Z,94.99
2022-11-08T01:19:30.321Z,95.35
2022-11-08T01:22:32.687Z,94.67
2022-11-08T01:25:40.044Z,94.06
2022-11-08T01:28:42.451Z,94.62
2022-11-08T01:31:44.791Z,94.89
2022-11-08T01:34:47.175Z,94.91
2022-11-08T01:37:51.305Z,94.72
2022-11-08T01:40:53.825Z,94.42
2022-11-08T01:43:58.643Z,93.37
2022-11-08T01:47:00.983Z,93.84
2022-11-08T01:50:14.533Z,94.26
2022-11-08T01:53:17.648Z,94.13
2022-11-08T01:56:20.888Z,93.58
2022-11-08T01:59:23.694Z,93.77
2022-11-08T02:02:30.000Z,93.44
2022-11-08T02:05:34.309Z,92.60
2022-11-08T02:08:39.543Z,92.59
2022-11-08T02:11:42.939Z,92.69
2022-11-08T02:14:45.297Z,92.53
2022-11-08T02:17:47.785Z,93.22
2022-11-08T02:21:08.793Z,93.44
2022-11-08T02:24:13.136Z,93.18
2022-11-08T02:27:15.563Z,93.39
2022-11-08T02:30:17.960Z,91.92
2022-11-08T02:33:22.822Z,92.23
2022-11-08T02:36:25.370Z,91.76
2022-11-08T02:39:28.853Z,92.19
2022-11-08T02:42:31.422Z,92.57
2022-11-08T02:45:33.762Z,92.52
2022-11-08T02:48:36.220Z,92.82
2022-11-08T02:51:38.585Z,92.49
2022-11-08T02:54:41.016Z,92.27
2022-11-08T02:57:43.428Z,92.09
2022-11-08T03:00:45.910Z,91.57
2022-11-08T03:03:48.253Z,91.97
2022-11-08T03:06:50.738Z,91.93
2022-11-08T03:09:53.118Z,93.06
2022-11-08T03:12:56.674Z,92.91
2022-11-08T03:16:02.414Z,91.57
2022-11-08T03:19:05.140Z,91.44
2022-11-08T03:22:07.452Z,92.16
2022-11-08T03:25:10.081Z,93.24
2022-11-08T03:28:12.754Z,92.46
2022-11-08T03:31:15.185Z,91.61
2022-11-08T03:34:17.572Z,91.70
2022-11-08T03:37:20.045Z,92.64
2022-11-08T03:40:23.927Z,92.42
2022-11-08T03:43:26.862Z,92.55
2022-11-08T03:46:30.226Z,91.80
2022-11-08T03:49:32.641Z,91.59
2022-11-08T03:52:42.062Z,91.55
2022-11-08T03:55:44.477Z,90.91
2022-11-08T03:58:46.876Z,90.92
2022-11-08T04:01:49.519Z,90.41
2022-11-08T04:04:52.141Z,90.49
2022-11-08T04:08:00.405Z,90.15
2022-11-08T04:11:22.812Z,90.12
2022-11-08T04:14:43.451Z,90.51
2022-11-08T04:18:06.811Z,90.27
2022-11-08T04:21:19.662Z,90.29
2022-11-08T04:24:22.407Z,90.36
2022-11-08T04:27:24.837Z,89.97
2022-11-08T04:30:27.414Z,90.02
2022-11-08T04:33:30.113Z,90.21
2022-11-08T04:36:33.351Z,90.10
2022-11-08T04:39:35.729Z,89.55
2022-11-08T04:42:38.235Z,89.79
2022-11-08T04:45:40.900Z,89.67
2022-11-08T04:48:44.157Z,89.65
2022-11-08T04:51:46.559Z,89.70
2022-11-08T04:54:48.935Z,90.51
2022-11-08T04:57:51.377Z,91.10
2022-11-08T05:00:53.872Z,91.76
2022-11-08T05:03:57.335Z,91.47
2022-11-08T05:06:59.738Z,92.02
2022-11-08T05:10:02.810Z,91.89
2022-11-08T05:13:05.410Z,91.37
2022-11-08T05:16:20.139Z,91.13
2022-11-08T05:19:45.849Z,91.04
2022-11-08T05:23:06.603Z,92.24
2022-11-08T05:26:09.497Z,91.25
2022-11-08T05:29:13.332Z,91.07
2022-11-08T05:32:15.806Z,91.56
2022-11-08T05:35:21.568Z,90.81
2022-11-08T05:38:24.024Z,90.46
2022-11-08T05:41:26.881Z,90.48
2022-11-08T05:44:29.340Z,91.30
2022-11-08T05:47:31.819Z,91.77
2022-11-08T05:50:35.491Z,91.18
2022-11-08T05:53:41.135Z,91.72
2022-11-08T05:56:43.804Z,90.76
2022-11-08T05:59:46.186Z,91.00
2022-11-08T06:02:48.695Z,90.45
2022-11-08T06:05:51.173Z,91.11
2022-11-08T06:08:54.155Z,91.07
2022-11-08T06:11:57.327Z,91.44
2022-11-08T06:15:00.001Z,91.58
2022-11-08T06:18:04.322Z,90.42
2022-11-08T06:21:08.895Z,90.63
2022-11-08T06:24:11.368Z,90.56
2022-11-08T06:27:14.806Z,91.17
2022-11-08T06:30:17.593Z,89.14
2022-11-08T06:33:21.484Z,88.37
2022-11-08T06:36:24.286Z,84.14
2022-11-08T06:39:26.906Z,84.77
2022-11-08T06:42:29.593Z,86.06
2022-11-08T06:45:32.727Z,86.45
2022-11-08T06:48:36.358Z,85.18
2022-11-08T06:51:38.973Z,84.89
2022-11-08T06:54:41.360Z,86.18
2022-11-08T06:57:43.880Z,86.84
2022-11-08T07:00:46.624Z,84.23
2022-11-08T07:03:49.290Z,83.42
2022-11-08T07:06:51.855Z,81.26
2022-11-08T07:10:04.816Z,82.41
2022-11-08T07:13:12.700Z,84.91
2022-11-08T07:16:15.536Z,83.34
2022-11-08T07:19:18.399Z,83.91
2022-11-08T07:22:21.037Z,83.83
2022-11-08T07:25:24.374Z,84.89
2022-11-08T07:28:27.602Z,79.02
2022-11-08T07:31:30.266Z,78.53
2022-11-08T07:34:33.555Z,80.83
2022-11-08T07:37:36.233Z,81.59
2022-11-08T07:40:39.316Z,81.71
2022-11-08T07:43:41.948Z,84.16
2022-11-08T07:46:46.278Z,79.43
2022-11-08T07:49:48.924Z,80.31
2022-11-08T07:52:51.546Z,82.72
2022-11-08T07:55:55.229Z,76.25
2022-11-08T07:58:57.843Z,79.11
2022-11-08T08:02:00.337Z,80.03
2022-11-08T08:05:02.880Z,81.30
2022-11-08T08:08:06.178Z,81.89
2022-11-08T08:11:09.682Z,81.87
2022-11-08T08:14:12.109Z,82.34
2022-11-08T08:17:14.669Z,81.84
2022-11-08T08:20:17.642Z,81.70
2022-11-08T08:23:20.218Z,83.38
2022-11-08T08:26:22.955Z,84.62
2022-11-08T08:29:25.542Z,85.57
2022-11-08T08:32:31.404Z,84.23
2022-11-08T08:35:36.286Z,83.80
2022-11-08T08:38:44.333Z,84.09
2022-11-08T08:41:47.335Z,83.25
2022-11-08T08:44:49.805Z,84.04
2022-11-08T08:47:53.853Z,83.54
2022-11-08T08:50:57.229Z,83.15
2022-11-08T08:53:59.838Z,83.74
2022-11-08T08:57:02.236Z,83.87
2022-11-08T09:03:28.421Z,83.67
2022-11-08T09:06:38.734Z,84.29
2022-11-08T09:09:41.724Z,83.48
2022-11-08T09:12:44.611Z,83.92
2022-11-08T09:15:47.271Z,83.17
2022-11-08T09:18:49.926Z,82.92
2022-11-08T09:21:52.588Z,82.29
2022-11-08T09:24:55.058Z,81.77
2022-11-08T09:27:57.596Z,80.80
2022-11-08T09:31:10.404Z,81.82
2022-11-08T09:34:15.101Z,82.52
2022-11-08T09:37:20.199Z,82.62
2022-11-08T09:41:12.682Z,83.38
2022-11-08T09:44:37.023Z,83.87
2022-11-08T09:47:41.907Z,83.55
2022-11-08T09:50:46.331Z,83.09
2022-11-08T09:53:56.525Z,82.59
2022-11-08T09:57:04.435Z,83.21
2022-11-08T10:00:07.849Z,83.29
2022-11-08T10:03:15.615Z,82.84
2022-11-08T10:06:40.431Z,83.28
2022-11-08T10:09:58.812Z,82.18
2022-11-08T10:13:23.377Z,82.37
2022-11-08T10:16:35.132Z,82.89
2022-11-08T10:19:37.594Z,82.68
2022-11-08T10:22:39.958Z,82.47
2022-11-08T10:25:50.609Z,82.63
2022-11-08T10:29:03.202Z,83.14
2022-11-08T10:32:18.090Z,82.42
2022-11-08T10:36:00.703Z,81.69
2022-11-08T10:39:11.988Z,82.94
2022-11-08T10:42:33.200Z,82.95
2022-11-08T10:45:35.882Z,83.13
2022-11-08T10:48:40.256Z,82.46
2022-11-08T10:51:47.566Z,81.94
2022-11-08T10:54:57.935Z,83.04
2022-11-08T10:58:00.636Z,83.02
2022-11-08T11:01:24.635Z,82.38
2022-11-08T11:04:33.101Z,82.32
2022-11-08T11:07:36.608Z,82.60
2022-11-08T11:10:41.838Z,82.55
2022-11-08T11:13:44.416Z,81.71
2022-11-08T11:17:17.740Z,81.60
2022-11-08T11:20:23.428Z,80.74
2022-11-08T11:23:34.525Z,79.64
2022-11-08T11:26:44.328Z,79.73
2022-11-08T11:29:46.957Z,79.61
2022-11-08T11:33:01.744Z,79.49
2022-11-08T11:36:13.768Z,79.91
2022-11-08T11:39:28.892Z,78.98
2022-11-08T11:42:46.608Z,78.65
2022-11-08T11:45:58.889Z,78.31
2022-11-08T11:49:12.396Z,78.89
2022-11-08T11:52:17.678Z,78.27
2022-11-08T11:55:25.342Z,78.53
2022-11-08T11:58:51.012Z,78.41
2022-11-08T12:01:56.628Z,78.25
2022-11-08T12:05:30.074Z,78.01
2022-11-08T12:08:35.509Z,78.91
2022-11-08T12:12:03.906Z,79.60
2022-11-08T12:15:06.306Z,79.20
2022-11-08T12:18:41.140Z,78.85
2022-11-08T12:22:26.410Z,78.51
2022-11-08T12:26:09.300Z,78.99
2022-11-08T12:29:21.208Z,78.03
2022-11-08T12:32:54.551Z,79.38
2022-11-08T12:36:22.318Z,79.41
2022-11-08T12:39:24.678Z,80.19
2022-11-08T12:42:43.128Z,80.68
2022-11-08T12:46:03.992Z,80.42
2022-11-08T12:49:18.440Z,80.38
2022-11-08T12:52:44.246Z,81.14
2022-11-08T12:55:48.583Z,81.19
2022-11-08T12:58:53.861Z,80.22
2022-11-08T13:01:57.130Z,80.45
2022-11-08T13:05:13.380Z,80.34
2022-11-08T13:08:24.139Z,80.44
2022-11-08T13:11:45.612Z,80.73
2022-11-08T13:14:49.173Z,80.85
2022-11-08T13:18:06.835Z,81.27
2022-11-08T13:21:28.192Z,81.87
2022-11-08T13:24:49.288Z,81.89
2022-11-08T13:27:54.541Z,80.75
2022-11-08T13:31:08.891Z,81.73
2022-11-08T13:34:41.948Z,81.76
2022-11-08T13:38:00.382Z,82.06
2022-11-08T13:41:18.166Z,82.37
2022-11-08T13:44:54.862Z,81.96
2022-11-08T13:48:05.292Z,81.68
2022-11-08T13:51:27.341Z,81.75
2022-11-08T13:54:49.526Z,82.22
2022-11-08T13:58:30.305Z,81.25
2022-11-08T14:01:37.568Z,81.25
2022-11-08T14:04:41.674Z,81.59
2022-11-08T14:08:28.611Z,81.68
2022-11-08T14:11:38.787Z,81.92
2022-11-08T14:15:19.861Z,81.51
2022-11-08T14:18:48.727Z,82.23
2022-11-08T14:21:55.403Z,83.10
2022-11-08T14:25:39.169Z,82.88
2022-11-08T14:28:44.315Z,83.08
2022-11-08T14:31:47.274Z,82.75
2022-11-08T14:34:54.813Z,82.72
2022-11-08T14:37:57.403Z,82.13
2022-11-08T14:41:05.292Z,82.47
2022-11-08T14:44:14.888Z,81.87
2022-11-08T14:47:30.341Z,82.73
2022-11-08T14:50:35.324Z,82.99
2022-11-08T14:53:50.610Z,83.50
2022-11-08T14:56:56.283Z,83.33
2022-11-08T15:00:00.745Z,83.12
2022-11-08T15:03:05.778Z,83.91
2022-11-08T15:06:13.815Z,83.47
2022-11-08T15:09:35.144Z,83.91
2022-11-08T15:12:42.645Z,83.11
2022-11-08T15:15:52.773Z,83.44
2022-11-08T15:18:55.810Z,83.58
2022-11-08T15:22:00.358Z,83.43
2022-11-08T15:25:14.951Z,83.97
2022-11-08T15:28:23.527Z,83.73
2022-11-08T15:31:29.783Z,83.64
2022-11-08T15:34:40.649Z,83.91
2022-11-08T15:37:43.497Z,84.30
2022-11-08T15:40:53.431Z,83.54
2022-11-08T15:44:14.506Z,83.83
2022-11-08T15:47:43.111Z,84.14
2022-11-08T15:50:45.731Z,84.20
2022-11-08T15:53:48.152Z,84.15
2022-11-08T15:56:52.494Z,84.10
2022-11-08T15:59:55.308Z,84.42
2022-11-08T16:02:58.538Z,84.77
2022-11-08T16:06:01.720Z,84.52
2022-11-08T16:09:04.374Z,84.87
2022-11-08T16:12:07.178Z,84.95
2022-11-08T16:15:21.716Z,85.34
2022-11-08T16:18:24.808Z,85.48
2022-11-08T16:21:27.546Z,85.27
2022-11-08T16:24:30.067Z,85.54
2022-11-08T16:27:32.788Z,85.25
2022-11-08T16:30:35.458Z,85.37
2022-11-08T16:33:37.942Z,85.73
2022-11-08T16:36:43.069Z,85.36
2022-11-08T16:39:47.318Z,85.35
2022-11-08T16:42:52.995Z,85.63
2022-11-08T16:46:05.560Z,86.15
2022-11-08T16:49:20.546Z,84.88
2022-11-08T16:52:26.906Z,85.18
2022-11-08T16:55:29.992Z,84.22
2022-11-08T16:58:32.713Z,84.40
2022-11-08T17:01:35.560Z,84.58
2022-11-08T17:04:38.364Z,84.28
2022-11-08T17:07:40.882Z,84.69
2022-11-08T17:10:43.860Z,84.68
2022-11-08T17:13:47.164Z,84.64
2022-11-08T17:16:52.541Z,84.86
2022-11-08T17:19:55.291Z,84.27
2022-11-08T17:22:57.707Z,84.94
2022-11-08T17:26:09.010Z,85.36
2022-11-08T17:29:11.427Z,85.98
2022-11-08T17:32:15.242Z,85.64
2022-11-08T17:35:17.843Z,85.01
2022-11-08T17:38:20.340Z,85.24
2022-11-08T17:41:22.700Z,85.32
2022-11-08T17:44:26.173Z,85.06
2022-11-08T17:47:28.853Z,85.01
2022-11-08T17:50:31.647Z,85.64
2022-11-08T17:53:35.017Z,85.47
2022-11-08T17:56:37.663Z,85.40
2022-11-08T17:59:40.938Z,84.94
2022-11-08T18:02:45.621Z,85.04
2022-11-08T18:05:59.785Z,85.72
2022-11-08T18:09:02.441Z,85.23
2022-11-08T18:12:05.438Z,85.32
2022-11-08T18:15:08.925Z,86.01
2022-11-08T18:18:11.999Z,85.74
2022-11-08T18:21:14.990Z,86.34
2022-11-08T18:24:17.580Z,86.36
2022-11-08T18:27:20.802Z,86.00
2022-11-08T18:30:23.803Z,86.43
2022-11-08T18:33:26.581Z,86.64
2022-11-08T18:36:30.956Z,86.18
2022-11-08T18:39:33.713Z,86.40
2022-11-08T18:42:36.542Z,86.09
2022-11-08T18:45:39.386Z,86.09
2022-11-08T18:48:42.691Z,85.72
2022-11-08T18:51:46.353Z,86.05
2022-11-08T18:54:48.836Z,86.03
2022-11-08T18:57:51.604Z,87.12
2022-11-08T19:00:56.215Z,87.22
2022-11-08T19:03:58.807Z,87.60
2022-11-08T19:07:03.061Z,86.87
2022-11-08T19:10:07.844Z,87.05
2022-11-08T19:13:11.744Z,86.36
2022-11-08T19:16:18.703Z,86.10
2022-11-08T19:19:23.672Z,86.46
2022-11-08T19:22:28.230Z,86.67
2022-11-08T19:25:33.761Z,85.41
2022-11-08T19:28:39.291Z,85.72
2022-11-08T19:31:42.938Z,85.78
2022-11-08T19:34:47.038Z,85.14
2022-11-08T19:37:49.683Z,85.56
2022-11-08T19:40:52.442Z,85.45
2022-11-08T19:43:55.235Z,86.39
2022-11-08T19:46:58.137Z,86.32
2022-11-08T19:50:00.914Z,86.44
2022-11-08T19:53:06.741Z,87.05
2022-11-08T19:56:12.517Z,87.13
2022-11-08T19:59:15.180Z,87.43
2022-11-08T20:02:18.101Z,87.44
2022-11-08T20:05:20.833Z,87.99
2022-11-08T20:08:24.000Z,88.02
2022-11-08T20:11:29.504Z,87.93
2022-11-08T20:14:32.134Z,87.59
2022-11-08T20:17:35.541Z,87.59
2022-11-08T20:20:41.355Z,87.24
2022-11-08T20:23:43.991Z,87.55
2022-11-08T20:26:46.638Z,88.43
2022-11-08T20:29:49.780Z,89.15
2022-11-08T20:32:52.447Z,88.63
2022-11-08T20:35:55.397Z,88.31
2022-11-08T20:39:02.206Z,87.90
2022-11-08T20:42:08.269Z,88.14
2022-11-08T20:45:14.974Z,88.32
2022-11-08T20:48:18.450Z,88.18
2022-11-08T20:51:21.566Z,87.97
2022-11-08T20:54:24.202Z,87.42
2022-11-08T20:57:27.513Z,88.07
2022-11-08T21:00:56.694Z,88.06
2022-11-08T21:03:52.896Z,88.14
2022-11-08T21:07:59.253Z,87.88
2022-11-08T21:13:44.536Z,87.77
2022-11-08T21:17:19.489Z,87.39
2022-11-08T21:20:12.713Z,87.56
2022-11-08T21:23:16.408Z,87.60
2022-11-08T21:26:19.304Z,87.29
2022-11-08T21:29:21.778Z,87.22
2022-11-08T21:32:24.150Z,87.02
2022-11-08T21:35:26.556Z,87.10
2022-11-08T21:38:29.139Z,87.40
2022-11-08T21:41:31.620Z,86.74
2022-11-08T21:44:33.998Z,86.72
2022-11-08T21:47:36.635Z,86.95
2022-11-08T21:50:39.616Z,87.51
2022-11-08T21:53:52.537Z,87.30
2022-11-08T21:56:56.226Z,87.81
2022-11-08T21:59:58.639Z,87.28
2022-11-08T22:03:01.185Z,87.76
2022-11-08T22:06:03.956Z,88.72
2022-11-08T22:09:06.661Z,88.67
2022-11-08T22:12:09.043Z,89.55
2022-11-08T22:15:11.476Z,89.13
2022-11-08T22:18:36.363Z,88.78
2022-11-08T22:21:40.275Z,89.14
2022-11-08T22:24:43.300Z,89.00
2022-11-08T22:27:45.659Z,89.53
2022-11-08T22:30:51.921Z,88.85
2022-11-08T22:33:54.380Z,89.20
2022-11-08T22:36:56.811Z,89.41
2022-11-08T22:39:59.304Z,88.98
2022-11-08T22:43:01.726Z,88.83
2022-11-08T22:46:04.095Z,89.01
2022-11-08T22:49:06.645Z,88.70
2022-11-08T22:52:08.978Z,88.69
2022-11-08T22:55:11.365Z,88.72
2022-11-08T22:58:13.704Z,88.96
2022-11-08T23:01:16.913Z,88.86
2022-11-08T23:04:20.042Z,88.58
2022-11-08T23:07:22.404Z,88.76
2022-11-08T23:10:24.895Z,88.80
2022-11-08T23:13:45.789Z,88.57
2022-11-08T23:16:48.092Z,89.42
2022-11-08T23:20:09.057Z,89.50
2022-11-08T23:23:29.997Z,89.86
2022-11-08T23:26:51.120Z,90.91
2022-11-08T23:30:12.269Z,90.88
2022-11-08T23:33:14.619Z,90.51
2022-11-08T23:36:17.019Z,91.25
2022-11-08T23:39:19.471Z,91.19
2022-11-08T23:42:40.169Z,91.73
2022-11-08T23:45:42.584Z,91.92
2022-11-08T23:48:45.039Z,91.94
2022-11-08T23:51:47.561Z,92.12
2022-11-08T23:54:49.966Z,91.80
2022-11-08T23:57:52.388Z,90.82
